sensor_id;sensor_type;location;lat;lon;timestamp;temperature;humidity
66140;DHT22;52945;51.908;8.364;2022-08-21T00:00:23;21.20;67.40
66140;DHT22;52945;51.908;8.364;2022-08-21T00:03:24;21.20;67.10
66140;DHT22;52945;51.908;8.364;2022-08-21T00:06:26;21.20;67.40
66140;DHT22;52945;51.908;8.364;2022-08-21T00:09:26;21.20;67.50
66140;DHT22;52945;51.908;8.364;2022-08-21T00:12:27;21.20;67.80
66140;DHT22;52945;51.908;8.364;2022-08-21T00:15:29;21.20;67.80
66140;DHT22;52945;51.908;8.364;2022-08-21T00:18:30;21.10;68.00
66140;DHT22;52945;51.908;8.364;2022-08-21T00:21:31;21.20;67.80
66140;DHT22;52945;51.908;8.364;2022-08-21T00:24:32;21.20;67.80
66140;DHT22;52945;51.908;8.364;2022-08-21T00:27:33;21.20;67.50
66140;DHT22;52945;51.908;8.364;2022-08-21T00:30:34;21.10;66.90
66140;DHT22;52945;51.908;8.364;2022-08-21T00:33:35;21.10;67.00
66140;DHT22;52945;51.908;8.364;2022-08-21T00:36:35;21.00;66.80
66140;DHT22;52945;51.908;8.364;2022-08-21T00:39:36;20.90;66.90
66140;DHT22;52945;51.908;8.364;2022-08-21T00:42:37;20.80;67.10
66140;DHT22;52945;51.908;8.364;2022-08-21T00:45:38;20.80;67.10
66140;DHT22;52945;51.908;8.364;2022-08-21T00:48:39;20.80;67.20
66140;DHT22;52945;51.908;8.364;2022-08-21T00:51:47;20.80;67.50
66140;DHT22;52945;51.908;8.364;2022-08-21T00:54:49;20.70;67.70
66140;DHT22;52945;51.908;8.364;2022-08-21T00:57:52;20.70;67.80
66140;DHT22;52945;51.908;8.364;2022-08-21T01:00:54;20.70;68.00
66140;DHT22;52945;51.908;8.364;2022-08-21T01:03:55;20.70;68.00
66140;DHT22;52945;51.908;8.364;2022-08-21T01:06:55;20.70;68.10
66140;DHT22;52945;51.908;8.364;2022-08-21T01:09:56;20.70;68.20
66140;DHT22;52945;51.908;8.364;2022-08-21T01:12:57;20.70;68.20
66140;DHT22;52945;51.908;8.364;2022-08-21T01:15:59;20.70;68.30
66140;DHT22;52945;51.908;8.364;2022-08-21T01:19:00;20.70;68.50
66140;DHT22;52945;51.908;8.364;2022-08-21T01:22:02;20.70;68.60
66140;DHT22;52945;51.908;8.364;2022-08-21T01:25:05;20.70;68.60
66140;DHT22;52945;51.908;8.364;2022-08-21T01:28:12;20.70;69.10
66140;DHT22;52945;51.908;8.364;2022-08-21T01:31:14;20.70;69.30
66140;DHT22;52945;51.908;8.364;2022-08-21T01:34:16;20.70;69.40
66140;DHT22;52945;51.908;8.364;2022-08-21T01:37:17;20.70;69.50
66140;DHT22;52945;51.908;8.364;2022-08-21T01:40:19;20.70;69.50
66140;DHT22;52945;51.908;8.364;2022-08-21T01:43:19;20.70;69.70
66140;DHT22;52945;51.908;8.364;2022-08-21T01:46:20;20.60;69.50
66140;DHT22;52945;51.908;8.364;2022-08-21T01:49:21;20.70;69.30
66140;DHT22;52945;51.908;8.364;2022-08-21T01:52:21;20.70;69.10
66140;DHT22;52945;51.908;8.364;2022-08-21T01:55:23;20.70;69.20
66140;DHT22;52945;51.908;8.364;2022-08-21T01:58:23;20.60;68.90
66140;DHT22;52945;51.908;8.364;2022-08-21T02:01:24;20.60;69.00
66140;DHT22;52945;51.908;8.364;2022-08-21T02:04:24;20.60;68.90
66140;DHT22;52945;51.908;8.364;2022-08-21T02:07:25;20.50;68.90
66140;DHT22;52945;51.908;8.364;2022-08-21T02:10:29;20.50;68.90
66140;DHT22;52945;51.908;8.364;2022-08-21T02:13:29;20.50;69.00
66140;DHT22;52945;51.908;8.364;2022-08-21T02:16:30;20.40;69.00
66140;DHT22;52945;51.908;8.364;2022-08-21T02:19:31;20.40;69.00
66140;DHT22;52945;51.908;8.364;2022-08-21T02:22:31;20.40;69.00
66140;DHT22;52945;51.908;8.364;2022-08-21T02:25:32;20.40;69.00
66140;DHT22;52945;51.908;8.364;2022-08-21T02:28:34;20.30;69.20
66140;DHT22;52945;51.908;8.364;2022-08-21T02:31:35;20.30;69.30
66140;DHT22;52945;51.908;8.364;2022-08-21T02:34:35;20.20;69.50
66140;DHT22;52945;51.908;8.364;2022-08-21T02:37:53;20.10;69.50
66140;DHT22;52945;51.908;8.364;2022-08-21T02:40:55;20.10;69.60
66140;DHT22;52945;51.908;8.364;2022-08-21T02:43:56;20.10;69.70
66140;DHT22;52945;51.908;8.364;2022-08-21T02:46:57;20.10;69.80
66140;DHT22;52945;51.908;8.364;2022-08-21T02:49:57;20.10;69.70
66140;DHT22;52945;51.908;8.364;2022-08-21T02:52:58;20.10;69.70
66140;DHT22;52945;51.908;8.364;2022-08-21T02:55:59;20.00;69.60
66140;DHT22;52945;51.908;8.364;2022-08-21T02:59:00;20.00;69.90
66140;DHT22;52945;51.908;8.364;2022-08-21T03:02:01;20.00;69.80
66140;DHT22;52945;51.908;8.364;2022-08-21T03:05:03;19.90;70.30
66140;DHT22;52945;51.908;8.364;2022-08-21T03:08:06;19.80;70.40
66140;DHT22;52945;51.908;8.364;2022-08-21T03:11:09;19.80;70.30
66140;DHT22;52945;51.908;8.364;2022-08-21T03:14:10;19.80;70.50
66140;DHT22;52945;51.908;8.364;2022-08-21T03:17:10;19.80;70.50
66140;DHT22;52945;51.908;8.364;2022-08-21T03:20:11;19.80;70.70
66140;DHT22;52945;51.908;8.364;2022-08-21T03:23:13;19.80;70.70
66140;DHT22;52945;51.908;8.364;2022-08-21T03:26:14;19.80;70.40
66140;DHT22;52945;51.908;8.364;2022-08-21T03:29:15;19.90;70.30
66140;DHT22;52945;51.908;8.364;2022-08-21T03:32:15;19.90;70.50
66140;DHT22;52945;51.908;8.364;2022-08-21T03:35:17;19.90;70.60
66140;DHT22;52945;51.908;8.364;2022-08-21T03:38:18;19.80;70.80
66140;DHT22;52945;51.908;8.364;2022-08-21T03:41:20;19.70;70.90
66140;DHT22;52945;51.908;8.364;2022-08-21T03:44:20;19.70;70.80
66140;DHT22;52945;51.908;8.364;2022-08-21T03:47:21;19.80;70.80
66140;DHT22;52945;51.908;8.364;2022-08-21T03:50:24;19.70;70.80
66140;DHT22;52945;51.908;8.364;2022-08-21T03:53:25;19.70;70.40
66140;DHT22;52945;51.908;8.364;2022-08-21T03:56:26;19.70;70.10
66140;DHT22;52945;51.908;8.364;2022-08-21T03:59:27;19.70;70.00
66140;DHT22;52945;51.908;8.364;2022-08-21T04:02:27;19.70;70.00
66140;DHT22;52945;51.908;8.364;2022-08-21T04:05:28;19.70;69.70
66140;DHT22;52945;51.908;8.364;2022-08-21T04:08:28;19.70;69.50
66140;DHT22;52945;51.908;8.364;2022-08-21T04:11:30;19.70;69.40
66140;DHT22;52945;51.908;8.364;2022-08-21T04:14:30;19.70;69.60
66140;DHT22;52945;51.908;8.364;2022-08-21T04:17:31;19.70;69.40
66140;DHT22;52945;51.908;8.364;2022-08-21T04:20:32;19.70;69.40
66140;DHT22;52945;51.908;8.364;2022-08-21T04:23:33;19.70;69.20
66140;DHT22;52945;51.908;8.364;2022-08-21T04:26:35;19.60;69.50
66140;DHT22;52945;51.908;8.364;2022-08-21T04:29:36;19.60;69.40
66140;DHT22;52945;51.908;8.364;2022-08-21T04:32:37;19.60;69.60
66140;DHT22;52945;51.908;8.364;2022-08-21T04:35:37;19.50;69.50
66140;DHT22;52945;51.908;8.364;2022-08-21T04:38:38;19.50;69.50
66140;DHT22;52945;51.908;8.364;2022-08-21T04:41:39;19.50;69.40
66140;DHT22;52945;51.908;8.364;2022-08-21T04:44:39;19.50;69.60
66140;DHT22;52945;51.908;8.364;2022-08-21T04:47:41;19.40;69.60
66140;DHT22;52945;51.908;8.364;2022-08-21T04:50:43;19.40;69.70
66140;DHT22;52945;51.908;8.364;2022-08-21T04:53:49;19.40;69.80
66140;DHT22;52945;51.908;8.364;2022-08-21T04:56:56;19.30;69.90
66140;DHT22;52945;51.908;8.364;2022-08-21T04:59:57;19.30;69.80
66140;DHT22;52945;51.908;8.364;2022-08-21T05:03:00;19.30;69.70
66140;DHT22;52945;51.908;8.364;2022-08-21T05:06:04;19.30;69.70
66140;DHT22;52945;51.908;8.364;2022-08-21T05:09:07;19.30;69.70
66140;DHT22;52945;51.908;8.364;2022-08-21T05:12:09;19.20;69.80
66140;DHT22;52945;51.908;8.364;2022-08-21T05:15:11;19.20;70.20
66140;DHT22;52945;51.908;8.364;2022-08-21T05:18:12;19.20;70.20
66140;DHT22;52945;51.908;8.364;2022-08-21T05:21:13;19.10;70.50
66140;DHT22;52945;51.908;8.364;2022-08-21T05:24:14;19.10;70.70
66140;DHT22;52945;51.908;8.364;2022-08-21T05:27:14;19.10;70.60
66140;DHT22;52945;51.908;8.364;2022-08-21T05:30:15;19.10;70.50
66140;DHT22;52945;51.908;8.364;2022-08-21T05:33:15;19.10;70.50
66140;DHT22;52945;51.908;8.364;2022-08-21T05:36:16;19.10;70.30
66140;DHT22;52945;51.908;8.364;2022-08-21T05:39:17;19.20;70.30
66140;DHT22;52945;51.908;8.364;2022-08-21T05:42:18;19.20;70.10
66140;DHT22;52945;51.908;8.364;2022-08-21T05:45:19;19.20;70.20
66140;DHT22;52945;51.908;8.364;2022-08-21T05:48:20;19.20;70.10
66140;DHT22;52945;51.908;8.364;2022-08-21T05:51:21;19.20;70.30
66140;DHT22;52945;51.908;8.364;2022-08-21T05:54:22;19.20;70.30
66140;DHT22;52945;51.908;8.364;2022-08-21T05:57:23;19.30;70.30
66140;DHT22;52945;51.908;8.364;2022-08-21T06:00:23;19.20;70.20
66140;DHT22;52945;51.908;8.364;2022-08-21T06:03:26;19.20;70.50
66140;DHT22;52945;51.908;8.364;2022-08-21T06:06:27;19.20;70.50
66140;DHT22;52945;51.908;8.364;2022-08-21T06:09:28;19.20;70.40
66140;DHT22;52945;51.908;8.364;2022-08-21T06:12:28;19.20;70.30
66140;DHT22;52945;51.908;8.364;2022-08-21T06:15:29;19.30;70.20
66140;DHT22;52945;51.908;8.364;2022-08-21T06:18:29;19.30;70.20
66140;DHT22;52945;51.908;8.364;2022-08-21T06:21:30;19.30;70.10
66140;DHT22;52945;51.908;8.364;2022-08-21T06:24:31;19.40;69.90
66140;DHT22;52945;51.908;8.364;2022-08-21T06:27:31;19.40;70.00
66140;DHT22;52945;51.908;8.364;2022-08-21T06:30:33;19.40;70.00
66140;DHT22;52945;51.908;8.364;2022-08-21T06:33:33;19.50;69.80
66140;DHT22;52945;51.908;8.364;2022-08-21T06:36:34;19.50;69.70
66140;DHT22;52945;51.908;8.364;2022-08-21T06:39:35;19.50;69.80
66140;DHT22;52945;51.908;8.364;2022-08-21T06:42:35;19.50;69.90
66140;DHT22;52945;51.908;8.364;2022-08-21T06:45:36;19.50;69.80
66140;DHT22;52945;51.908;8.364;2022-08-21T06:48:37;19.70;69.70
66140;DHT22;52945;51.908;8.364;2022-08-21T06:51:38;19.70;69.90
66140;DHT22;52945;51.908;8.364;2022-08-21T06:54:39;19.70;69.80
66140;DHT22;52945;51.908;8.364;2022-08-21T06:57:40;19.80;69.20
66140;DHT22;52945;51.908;8.364;2022-08-21T07:00:46;19.80;69.00
66140;DHT22;52945;51.908;8.364;2022-08-21T07:03:47;19.90;68.90
66140;DHT22;52945;51.908;8.364;2022-08-21T07:06:48;19.90;69.00
66140;DHT22;52945;51.908;8.364;2022-08-21T07:09:48;20.00;68.60
66140;DHT22;52945;51.908;8.364;2022-08-21T07:12:50;20.00;68.60
66140;DHT22;52945;51.908;8.364;2022-08-21T07:15:50;20.10;68.40
66140;DHT22;52945;51.908;8.364;2022-08-21T07:18:51;20.20;68.40
66140;DHT22;52945;51.908;8.364;2022-08-21T07:21:55;20.20;68.30
66140;DHT22;52945;51.908;8.364;2022-08-21T07:24:58;20.20;67.90
66140;DHT22;52945;51.908;8.364;2022-08-21T07:27:58;20.30;67.70
66140;DHT22;52945;51.908;8.364;2022-08-21T07:31:00;20.40;67.30
66140;DHT22;52945;51.908;8.364;2022-08-21T07:34:01;20.40;67.40
66140;DHT22;52945;51.908;8.364;2022-08-21T07:37:02;20.50;67.20
66140;DHT22;52945;51.908;8.364;2022-08-21T07:40:03;20.60;67.10
66140;DHT22;52945;51.908;8.364;2022-08-21T07:43:05;20.60;67.20
66140;DHT22;52945;51.908;8.364;2022-08-21T07:46:05;20.70;67.30
66140;DHT22;52945;51.908;8.364;2022-08-21T07:49:06;20.80;67.30
66140;DHT22;52945;51.908;8.364;2022-08-21T07:52:07;20.80;66.70
66140;DHT22;52945;51.908;8.364;2022-08-21T07:55:12;20.90;66.30
66140;DHT22;52945;51.908;8.364;2022-08-21T07:58:13;21.00;66.40
66140;DHT22;52945;51.908;8.364;2022-08-21T08:01:14;21.10;66.10
66140;DHT22;52945;51.908;8.364;2022-08-21T08:04:15;21.20;65.50
66140;DHT22;52945;51.908;8.364;2022-08-21T08:07:16;21.20;65.20
66140;DHT22;52945;51.908;8.364;2022-08-21T08:10:17;21.30;64.80
66140;DHT22;52945;51.908;8.364;2022-08-21T08:13:17;21.30;64.00
66140;DHT22;52945;51.908;8.364;2022-08-21T08:16:18;21.40;63.90
66140;DHT22;52945;51.908;8.364;2022-08-21T08:19:19;21.50;63.70
66140;DHT22;52945;51.908;8.364;2022-08-21T08:22:21;21.60;63.10
66140;DHT22;52945;51.908;8.364;2022-08-21T08:25:26;21.70;61.80
66140;DHT22;52945;51.908;8.364;2022-08-21T08:28:27;21.70;60.70
66140;DHT22;52945;51.908;8.364;2022-08-21T08:31:28;21.90;61.20
66140;DHT22;52945;51.908;8.364;2022-08-21T08:34:29;21.90;60.20
66140;DHT22;52945;51.908;8.364;2022-08-21T08:37:30;22.00;60.10
66140;DHT22;52945;51.908;8.364;2022-08-21T08:41:12;22.00;59.20
66140;DHT22;52945;51.908;8.364;2022-08-21T08:44:13;22.20;59.00
66140;DHT22;52945;51.908;8.364;2022-08-21T08:47:16;22.20;58.80
66140;DHT22;52945;51.908;8.364;2022-08-21T08:50:21;22.40;58.50
66140;DHT22;52945;51.908;8.364;2022-08-21T08:53:30;22.60;58.50
66140;DHT22;52945;51.908;8.364;2022-08-21T08:56:33;22.70;57.10
66140;DHT22;52945;51.908;8.364;2022-08-21T08:59:40;23.10;55.90
66140;DHT22;52945;51.908;8.364;2022-08-21T09:02:43;23.50;53.90
66140;DHT22;52945;51.908;8.364;2022-08-21T09:06:00;23.80;54.00
66140;DHT22;52945;51.908;8.364;2022-08-21T09:22:34;25.50;46.30
66140;DHT22;52945;51.908;8.364;2022-08-21T09:26:02;25.70;46.30
66140;DHT22;52945;51.908;8.364;2022-08-21T09:29:07;25.90;45.20
66140;DHT22;52945;51.908;8.364;2022-08-21T09:32:19;26.10;45.10
66140;DHT22;52945;51.908;8.364;2022-08-21T09:35:22;26.30;44.80
66140;DHT22;52945;51.908;8.364;2022-08-21T09:38:35;26.30;44.70
66140;DHT22;52945;51.908;8.364;2022-08-21T09:41:37;26.30;44.10
66140;DHT22;52945;51.908;8.364;2022-08-21T09:44:40;26.20;45.00
66140;DHT22;52945;51.908;8.364;2022-08-21T09:47:43;26.30;44.10
66140;DHT22;52945;51.908;8.364;2022-08-21T09:50:47;26.40;43.40
66140;DHT22;52945;51.908;8.364;2022-08-21T09:53:52;26.30;43.20
66140;DHT22;52945;51.908;8.364;2022-08-21T09:57:00;26.50;43.10
66140;DHT22;52945;51.908;8.364;2022-08-21T10:00:26;26.70;42.90
66140;DHT22;52945;51.908;8.364;2022-08-21T10:03:30;26.90;42.00
66140;DHT22;52945;51.908;8.364;2022-08-21T10:06:30;27.40;41.00
66140;DHT22;52945;51.908;8.364;2022-08-21T10:09:31;27.90;39.60
66140;DHT22;52945;51.908;8.364;2022-08-21T10:19:28;28.00;38.10
66140;DHT22;52945;51.908;8.364;2022-08-21T10:25:52;28.40;38.10
66140;DHT22;52945;51.908;8.364;2022-08-21T10:32:46;28.40;38.00
66140;DHT22;52945;51.908;8.364;2022-08-21T10:40:27;28.30;37.10
66140;DHT22;52945;51.908;8.364;2022-08-21T10:47:06;28.60;37.10
66140;DHT22;52945;51.908;8.364;2022-08-21T10:50:34;28.90;36.50
66140;DHT22;52945;51.908;8.364;2022-08-21T10:53:47;28.80;36.30
66140;DHT22;52945;51.908;8.364;2022-08-21T10:56:54;28.80;37.00
66140;DHT22;52945;51.908;8.364;2022-08-21T11:00:13;29.00;36.50
66140;DHT22;52945;51.908;8.364;2022-08-21T11:03:17;29.00;35.80
66140;DHT22;52945;51.908;8.364;2022-08-21T11:06:24;28.90;36.80
66140;DHT22;52945;51.908;8.364;2022-08-21T11:09:26;28.80;36.30
66140;DHT22;52945;51.908;8.364;2022-08-21T11:13:05;28.60;36.80
66140;DHT22;52945;51.908;8.364;2022-08-21T11:16:26;28.70;37.10
66140;DHT22;52945;51.908;8.364;2022-08-21T11:20:07;28.90;36.70
66140;DHT22;52945;51.908;8.364;2022-08-21T11:23:25;29.10;36.40
66140;DHT22;52945;51.908;8.364;2022-08-21T11:30:18;29.70;36.00
66140;DHT22;52945;51.908;8.364;2022-08-21T11:39:59;29.50;35.90
66140;DHT22;52945;51.908;8.364;2022-08-21T11:43:34;29.60;35.80
66140;DHT22;52945;51.908;8.364;2022-08-21T11:50:17;29.80;36.10
66140;DHT22;52945;51.908;8.364;2022-08-21T11:53:29;30.00;36.10
66140;DHT22;52945;51.908;8.364;2022-08-21T11:56:43;30.20;35.70
66140;DHT22;52945;51.908;8.364;2022-08-21T11:59:53;30.20;35.00
66140;DHT22;52945;51.908;8.364;2022-08-21T12:03:09;30.30;34.10
66140;DHT22;52945;51.908;8.364;2022-08-21T12:06:13;30.40;33.20
66140;DHT22;52945;51.908;8.364;2022-08-21T12:12:33;30.50;32.50
66140;DHT22;52945;51.908;8.364;2022-08-21T12:15:34;30.50;32.50
66140;DHT22;52945;51.908;8.364;2022-08-21T12:18:35;30.60;32.60
66140;DHT22;52945;51.908;8.364;2022-08-21T12:24:50;31.00;31.00
66140;DHT22;52945;51.908;8.364;2022-08-21T12:27:56;31.00;30.50
66140;DHT22;52945;51.908;8.364;2022-08-21T12:31:02;30.90;30.60
66140;DHT22;52945;51.908;8.364;2022-08-21T12:34:10;30.70;30.30
66140;DHT22;52945;51.908;8.364;2022-08-21T12:37:39;30.70;30.70
66140;DHT22;52945;51.908;8.364;2022-08-21T12:40:46;30.70;31.30
66140;DHT22;52945;51.908;8.364;2022-08-21T12:43:51;30.70;30.60
66140;DHT22;52945;51.908;8.364;2022-08-21T12:47:11;30.60;30.30
66140;DHT22;52945;51.908;8.364;2022-08-21T12:50:20;30.60;30.80
66140;DHT22;52945;51.908;8.364;2022-08-21T12:56:28;30.40;29.90
66140;DHT22;52945;51.908;8.364;2022-08-21T12:59:30;30.40;31.00
66140;DHT22;52945;51.908;8.364;2022-08-21T13:02:33;30.50;31.20
66140;DHT22;52945;51.908;8.364;2022-08-21T13:05:36;30.50;31.10
66140;DHT22;52945;51.908;8.364;2022-08-21T13:08:37;30.70;31.80
66140;DHT22;52945;51.908;8.364;2022-08-21T13:11:40;30.70;31.10
66140;DHT22;52945;51.908;8.364;2022-08-21T13:14:44;30.80;31.40
66140;DHT22;52945;51.908;8.364;2022-08-21T13:17:48;30.90;31.00
66140;DHT22;52945;51.908;8.364;2022-08-21T13:20:51;30.90;30.60
66140;DHT22;52945;51.908;8.364;2022-08-21T13:23:52;30.80;30.30
66140;DHT22;52945;51.908;8.364;2022-08-21T13:26:53;30.80;30.60
66140;DHT22;52945;51.908;8.364;2022-08-21T13:30:20;30.70;30.10
66140;DHT22;52945;51.908;8.364;2022-08-21T13:33:24;30.70;30.30
66140;DHT22;52945;51.908;8.364;2022-08-21T13:36:29;30.80;30.30
66140;DHT22;52945;51.908;8.364;2022-08-21T13:39:31;30.90;30.60
66140;DHT22;52945;51.908;8.364;2022-08-21T13:42:32;30.80;30.20
66140;DHT22;52945;51.908;8.364;2022-08-21T13:45:33;30.70;30.70
66140;DHT22;52945;51.908;8.364;2022-08-21T13:48:34;30.60;31.10
66140;DHT22;52945;51.908;8.364;2022-08-21T13:51:36;30.40;30.90
66140;DHT22;52945;51.908;8.364;2022-08-21T13:54:40;30.40;31.70
66140;DHT22;52945;51.908;8.364;2022-08-21T13:57:41;30.20;31.40
66140;DHT22;52945;51.908;8.364;2022-08-21T14:00:52;30.10;32.20
66140;DHT22;52945;51.908;8.364;2022-08-21T14:03:57;30.00;32.30
66140;DHT22;52945;51.908;8.364;2022-08-21T14:07:00;29.80;32.10
66140;DHT22;52945;51.908;8.364;2022-08-21T14:13:45;29.80;32.30
66140;DHT22;52945;51.908;8.364;2022-08-21T14:16:54;29.70;32.40
66140;DHT22;52945;51.908;8.364;2022-08-21T14:19:55;29.70;32.60
66140;DHT22;52945;51.908;8.364;2022-08-21T14:22:56;29.50;32.90
66140;DHT22;52945;51.908;8.364;2022-08-21T14:26:00;29.50;33.10
66140;DHT22;52945;51.908;8.364;2022-08-21T14:29:06;29.60;33.40
66140;DHT22;52945;51.908;8.364;2022-08-21T14:32:14;29.60;31.80
66140;DHT22;52945;51.908;8.364;2022-08-21T14:35:15;29.30;31.50
66140;DHT22;52945;51.908;8.364;2022-08-21T14:38:23;29.20;31.30
66140;DHT22;52945;51.908;8.364;2022-08-21T14:41:25;29.30;31.50
66140;DHT22;52945;51.908;8.364;2022-08-21T14:44:29;29.20;31.60
66140;DHT22;52945;51.908;8.364;2022-08-21T14:47:30;29.20;31.50
66140;DHT22;52945;51.908;8.364;2022-08-21T14:50:31;29.20;31.70
66140;DHT22;52945;51.908;8.364;2022-08-21T14:53:31;29.20;31.50
66140;DHT22;52945;51.908;8.364;2022-08-21T14:56:33;29.20;31.00
66140;DHT22;52945;51.908;8.364;2022-08-21T14:59:34;29.10;31.60
66140;DHT22;52945;51.908;8.364;2022-08-21T15:02:35;29.10;31.50
66140;DHT22;52945;51.908;8.364;2022-08-21T15:05:36;29.20;31.40
66140;DHT22;52945;51.908;8.364;2022-08-21T15:08:37;29.20;31.50
66140;DHT22;52945;51.908;8.364;2022-08-21T15:11:38;29.10;31.90
66140;DHT22;52945;51.908;8.364;2022-08-21T15:14:40;29.10;32.10
66140;DHT22;52945;51.908;8.364;2022-08-21T15:17:40;29.20;32.40
66140;DHT22;52945;51.908;8.364;2022-08-21T15:20:41;29.20;32.10
66140;DHT22;52945;51.908;8.364;2022-08-21T15:23:42;29.20;32.00
66140;DHT22;52945;51.908;8.364;2022-08-21T15:26:43;29.30;32.10
66140;DHT22;52945;51.908;8.364;2022-08-21T15:29:44;29.30;32.50
66140;DHT22;52945;51.908;8.364;2022-08-21T15:32:45;29.20;32.30
66140;DHT22;52945;51.908;8.364;2022-08-21T15:35:45;29.10;32.60
66140;DHT22;52945;51.908;8.364;2022-08-21T15:38:46;29.10;32.80
66140;DHT22;52945;51.908;8.364;2022-08-21T15:41:47;29.10;33.00
66140;DHT22;52945;51.908;8.364;2022-08-21T15:44:48;29.20;33.50
66140;DHT22;52945;51.908;8.364;2022-08-21T15:47:49;29.20;33.30
66140;DHT22;52945;51.908;8.364;2022-08-21T15:50:50;29.20;33.30
66140;DHT22;52945;51.908;8.364;2022-08-21T15:53:51;29.20;32.90
66140;DHT22;52945;51.908;8.364;2022-08-21T15:56:51;29.20;32.80
66140;DHT22;52945;51.908;8.364;2022-08-21T15:59:55;29.20;33.00
66140;DHT22;52945;51.908;8.364;2022-08-21T16:02:58;29.20;33.10
66140;DHT22;52945;51.908;8.364;2022-08-21T16:05:59;29.20;32.90
66140;DHT22;52945;51.908;8.364;2022-08-21T16:09:00;29.20;32.90
66140;DHT22;52945;51.908;8.364;2022-08-21T16:12:01;29.10;32.70
66140;DHT22;52945;51.908;8.364;2022-08-21T16:15:06;29.10;32.70
66140;DHT22;52945;51.908;8.364;2022-08-21T16:18:07;29.10;32.80
66140;DHT22;52945;51.908;8.364;2022-08-21T16:21:09;29.10;33.20
66140;DHT22;52945;51.908;8.364;2022-08-21T16:24:09;29.00;33.30
66140;DHT22;52945;51.908;8.364;2022-08-21T16:27:10;29.00;33.10
66140;DHT22;52945;51.908;8.364;2022-08-21T16:30:12;28.90;33.40
66140;DHT22;52945;51.908;8.364;2022-08-21T16:33:39;28.80;33.50
66140;DHT22;52945;51.908;8.364;2022-08-21T16:36:40;28.70;33.90
66140;DHT22;52945;51.908;8.364;2022-08-21T16:39:41;28.70;34.50
66140;DHT22;52945;51.908;8.364;2022-08-21T16:42:42;28.70;34.50
66140;DHT22;52945;51.908;8.364;2022-08-21T16:45:44;28.70;34.20
66140;DHT22;52945;51.908;8.364;2022-08-21T16:48:45;28.70;34.00
66140;DHT22;52945;51.908;8.364;2022-08-21T16:51:45;28.70;33.60
66140;DHT22;52945;51.908;8.364;2022-08-21T16:54:48;28.70;33.80
66140;DHT22;52945;51.908;8.364;2022-08-21T16:57:48;28.60;33.50
66140;DHT22;52945;51.908;8.364;2022-08-21T17:00:49;28.50;33.80
66140;DHT22;52945;51.908;8.364;2022-08-21T17:03:51;28.40;33.80
66140;DHT22;52945;51.908;8.364;2022-08-21T17:06:52;28.40;34.20
66140;DHT22;52945;51.908;8.364;2022-08-21T17:09:53;28.30;34.30
66140;DHT22;52945;51.908;8.364;2022-08-21T17:12:56;28.30;34.30
66140;DHT22;52945;51.908;8.364;2022-08-21T17:15:57;28.30;34.50
66140;DHT22;52945;51.908;8.364;2022-08-21T17:18:58;28.30;34.70
66140;DHT22;52945;51.908;8.364;2022-08-21T17:21:59;28.30;35.10
66140;DHT22;52945;51.908;8.364;2022-08-21T17:25:00;28.30;35.40
66140;DHT22;52945;51.908;8.364;2022-08-21T17:28:01;28.30;35.40
66140;DHT22;52945;51.908;8.364;2022-08-21T17:31:03;28.30;35.00
66140;DHT22;52945;51.908;8.364;2022-08-21T17:34:04;28.20;34.70
66140;DHT22;52945;51.908;8.364;2022-08-21T17:37:05;28.20;35.00
66140;DHT22;52945;51.908;8.364;2022-08-21T17:40:08;28.20;34.60
66140;DHT22;52945;51.908;8.364;2022-08-21T17:43:11;28.10;34.90
66140;DHT22;52945;51.908;8.364;2022-08-21T17:46:19;28.10;35.00
66140;DHT22;52945;51.908;8.364;2022-08-21T17:49:20;28.00;35.60
66140;DHT22;52945;51.908;8.364;2022-08-21T17:52:20;28.00;35.20
66140;DHT22;52945;51.908;8.364;2022-08-21T17:55:21;27.90;35.60
66140;DHT22;52945;51.908;8.364;2022-08-21T17:58:22;27.90;35.60
66140;DHT22;52945;51.908;8.364;2022-08-21T18:01:25;27.80;35.60
66140;DHT22;52945;51.908;8.364;2022-08-21T18:04:29;27.80;35.70
66140;DHT22;52945;51.908;8.364;2022-08-21T18:07:30;27.70;36.10
66140;DHT22;52945;51.908;8.364;2022-08-21T18:10:31;27.70;36.10
66140;DHT22;52945;51.908;8.364;2022-08-21T18:13:35;27.60;36.40
66140;DHT22;52945;51.908;8.364;2022-08-21T18:16:36;27.60;36.70
66140;DHT22;52945;51.908;8.364;2022-08-21T18:19:37;27.50;37.30
66140;DHT22;52945;51.908;8.364;2022-08-21T18:22:38;27.50;37.60
66140;DHT22;52945;51.908;8.364;2022-08-21T18:25:42;27.50;37.30
66140;DHT22;52945;51.908;8.364;2022-08-21T18:28:44;27.40;37.20
66140;DHT22;52945;51.908;8.364;2022-08-21T18:31:45;27.30;37.50
66140;DHT22;52945;51.908;8.364;2022-08-21T18:34:47;27.20;37.60
66140;DHT22;52945;51.908;8.364;2022-08-21T18:37:48;27.20;37.90
66140;DHT22;52945;51.908;8.364;2022-08-21T18:40:50;27.20;38.10
66140;DHT22;52945;51.908;8.364;2022-08-21T18:43:53;27.10;38.20
66140;DHT22;52945;51.908;8.364;2022-08-21T18:47:05;27.10;38.30
66140;DHT22;52945;51.908;8.364;2022-08-21T18:50:08;27.00;38.70
66140;DHT22;52945;51.908;8.364;2022-08-21T18:53:09;26.90;39.00
66140;DHT22;52945;51.908;8.364;2022-08-21T18:56:10;26.80;39.30
66140;DHT22;52945;51.908;8.364;2022-08-21T18:59:12;26.80;39.60
66140;DHT22;52945;51.908;8.364;2022-08-21T19:02:13;26.70;39.70
66140;DHT22;52945;51.908;8.364;2022-08-21T19:05:17;26.70;39.70
66140;DHT22;52945;51.908;8.364;2022-08-21T19:08:20;26.60;39.90
66140;DHT22;52945;51.908;8.364;2022-08-21T19:11:24;26.50;40.80
66140;DHT22;52945;51.908;8.364;2022-08-21T19:14:25;26.30;41.00
66140;DHT22;52945;51.908;8.364;2022-08-21T19:17:26;26.30;41.20
66140;DHT22;52945;51.908;8.364;2022-08-21T19:20:30;26.20;41.50
66140;DHT22;52945;51.908;8.364;2022-08-21T19:23:33;26.10;41.70
66140;DHT22;52945;51.908;8.364;2022-08-21T19:26:34;26.00;42.10
66140;DHT22;52945;51.908;8.364;2022-08-21T19:29:37;26.00;42.60
66140;DHT22;52945;51.908;8.364;2022-08-21T19:32:41;26.00;43.00
66140;DHT22;52945;51.908;8.364;2022-08-21T19:35:43;25.90;43.00
66140;DHT22;52945;51.908;8.364;2022-08-21T19:38:44;25.80;43.30
66140;DHT22;52945;51.908;8.364;2022-08-21T19:41:48;25.70;43.50
66140;DHT22;52945;51.908;8.364;2022-08-21T19:44:50;25.70;43.60
66140;DHT22;52945;51.908;8.364;2022-08-21T19:47:51;25.60;43.70
66140;DHT22;52945;51.908;8.364;2022-08-21T19:50:52;25.60;44.20
66140;DHT22;52945;51.908;8.364;2022-08-21T19:53:53;25.50;44.20
66140;DHT22;52945;51.908;8.364;2022-08-21T19:56:55;25.50;44.50
66140;DHT22;52945;51.908;8.364;2022-08-21T19:59:56;25.40;44.60
66140;DHT22;52945;51.908;8.364;2022-08-21T20:02:57;25.30;44.50
66140;DHT22;52945;51.908;8.364;2022-08-21T20:05:57;25.20;44.80
66140;DHT22;52945;51.908;8.364;2022-08-21T20:08:58;25.20;45.00
66140;DHT22;52945;51.908;8.364;2022-08-21T20:12:04;25.10;45.10
66140;DHT22;52945;51.908;8.364;2022-08-21T20:15:06;25.00;45.60
66140;DHT22;52945;51.908;8.364;2022-08-21T20:18:06;25.00;45.60